Time;durP1;ratioP1;P1;durP2;ratioP2;P2;SDS_P1;SDS_P2;PMS_P1;PMS_P2;Temp;Humidity;BMP_temperature;BMP_pressure;BME280_temperature;BME280_humidity;BME280_pressure;Samples;Min_cycle;Max_cycle;Signal;HPM_P1;HPM_P2
2023/09/01 00:02:20;;;;;;;0.30;0.30;;;;;;;16.39;85.09;99148.00;6274180;22;20024;-86
2023/09/01 00:05:05;;;;;;;;;;;;;;;16.35;84.88;99148.81;6273958;22;20019;-87
2023/09/01 00:07:35;;;;;;;0.40;0.40;;;;;;;16.31;85.05;99148.59;6274110;22;19919;-87
2023/09/01 00:10:03;;;;;;;0.30;0.30;;;;;;;16.30;85.30;99140.69;6246510;22;20024;-87
2023/09/01 00:12:31;;;;;;;0.40;0.40;;;;;;;16.29;85.56;99144.50;6247258;22;20031;-88
2023/09/01 00:14:59;;;;;;;0.30;0.30;;;;;;;16.30;85.32;99136.03;6274232;22;20295;-87
2023/09/01 00:17:26;;;;;;;0.30;0.30;;;;;;;16.30;85.24;99141.50;6247107;22;20055;-86
2023/09/01 00:19:53;;;;;;;0.30;0.30;;;;;;;16.42;84.68;99143.91;6246374;22;20020;-85
2023/09/01 00:22:20;;;;;;;0.40;0.40;;;;;;;16.39;84.52;99139.03;6273944;22;20104;-88
2023/09/01 00:24:47;;;;;;;0.40;0.40;;;;;;;16.38;84.56;99148.25;6273885;22;20520;-87
2023/09/01 00:27:15;;;;;;;0.40;0.40;;;;;;;16.34;84.68;99149.94;6273852;22;20023;-88
2023/09/01 00:29:42;;;;;;;0.30;0.30;;;;;;;16.32;85.00;99149.38;6246595;22;20355;-87
2023/09/01 00:32:10;;;;;;;0.30;0.30;;;;;;;16.28;85.21;99154.59;6246762;22;20490;-88
2023/09/01 00:34:37;;;;;;;0.40;0.40;;;;;;;16.26;85.26;99151.31;6247195;22;20030;-88
2023/09/01 00:37:05;;;;;;;0.40;0.40;;;;;;;16.24;85.44;99148.06;6261316;22;20459;-88
2023/09/01 00:39:32;;;;;;;0.30;0.30;;;;;;;16.21;85.63;99154.88;6249504;22;20019;-87
2023/09/01 00:41:59;;;;;;;0.40;0.40;;;;;;;16.22;85.61;99150.25;6248452;22;20347;-88
2023/09/01 00:44:26;;;;;;;0.38;0.38;;;;;;;16.18;85.93;99154.59;6276388;22;20336;-88
2023/09/01 00:46:53;;;;;;;0.40;0.40;;;;;;;16.13;85.89;99150.00;6275435;22;20030;-88
2023/09/01 00:49:21;;;;;;;0.40;0.40;;;;;;;16.16;86.17;99156.81;6223201;22;20073;-88
2023/09/01 00:51:48;;;;;;;0.40;0.40;;;;;;;16.09;86.14;99145.41;6248349;22;20039;-88
2023/09/01 00:54:15;;;;;;;0.40;0.40;;;;;;;16.10;86.29;99142.38;6275438;22;20023;-87
2023/09/01 00:56:43;;;;;;;0.30;0.30;;;;;;;16.15;86.16;99144.28;6275367;22;20024;-88
2023/09/01 00:59:11;;;;;;;0.40;0.40;;;;;;;16.13;86.10;99147.28;6223474;22;20031;-88
2023/09/01 01:01:40;;;;;;;0.40;0.40;;;;;;;16.10;85.98;99145.09;6276729;22;20019;-89
2023/09/01 01:04:07;;;;;;;0.40;0.40;;;;;;;16.08;86.18;99147.31;6251825;22;20097;-88
2023/09/01 01:06:52;;;;;;;0.30;0.30;;;;;;;16.10;86.22;99145.09;6281744;22;20028;-88
2023/09/01 01:09:50;;;;;;;0.30;0.30;;;;;;;16.11;86.14;99149.47;6247690;22;20018;-86
2023/09/01 01:12:45;;;;;;;0.30;0.30;;;;;;;16.09;86.00;99145.41;6249596;22;20027;-89
2023/09/01 01:15:14;;;;;;;0.40;0.40;;;;;;;16.04;86.02;99149.75;6223286;22;20028;-88
2023/09/01 01:17:45;;;;;;;0.40;0.40;;;;;;;16.01;86.65;99144.88;6248234;22;20034;-89
2023/09/01 01:20:34;;;;;;;0.40;0.40;;;;;;;15.95;86.64;99145.16;6248803;22;20334;-87
2023/09/01 01:23:14;;;;;;;0.40;0.40;;;;;;;15.93;86.79;99145.44;6248513;22;20023;-87
2023/09/01 01:25:49;;;;;;;0.40;0.40;;;;;;;15.85;87.35;99146.00;6249528;22;20030;-87
2023/09/01 01:28:17;;;;;;;0.40;0.40;;;;;;;15.85;87.36;99151.47;6275080;22;20050;-85
2023/09/01 01:30:46;;;;;;;0.40;0.40;;;;;;;15.84;87.75;99141.66;6247792;22;20050;-85
2023/09/01 01:33:55;;;;;;;0.40;0.40;;;;;;;15.84;87.75;99151.72;6274763;22;20019;-86
2023/09/01 01:36:45;;;;;;;0.30;0.30;;;;;;;15.77;87.88;99141.94;6274511;22;20462;-86
2023/09/01 01:39:16;;;;;;;0.40;0.40;;;;;;;15.72;88.06;99138.41;6236280;22;20053;-86
2023/09/01 01:41:44;;;;;;;0.40;0.40;;;;;;;15.70;88.24;99126.97;6247766;22;20019;-87
2023/09/01 01:44:14;;;;;;;0.40;0.40;;;;;;;15.71;88.38;99118.53;6274433;22;20043;-86
2023/09/01 01:46:41;;;;;;;0.40;0.40;;;;;;;15.75;88.15;99130.53;6222221;22;20410;-85
2023/09/01 01:49:09;;;;;;;0.40;0.40;;;;;;;15.76;88.17;99132.13;6247466;22;20020;-86
2023/09/01 01:51:37;;;;;;;0.40;0.40;;;;;;;15.76;88.12;99131.31;6247460;22;20028;-85
2023/09/01 01:54:05;;;;;;;0.40;0.40;;;;;;;15.74;88.25;99133.50;6247418;22;20523;-84
2023/09/01 01:56:33;;;;;;;0.30;0.30;;;;;;;15.76;88.03;99131.31;6274677;22;20103;-85
2023/09/01 01:59:00;;;;;;;0.38;0.38;;;;;;;15.75;88.17;99137.88;6247458;22;20027;-85
2023/09/01 02:01:27;;;;;;;0.40;0.40;;;;;;;15.70;88.28;99132.41;6247166;22;20028;-85
2023/09/01 02:03:57;;;;;;;0.32;0.32;;;;;;;15.65;88.44;99137.81;6247185;22;20024;-86
2023/09/01 02:06:25;;;;;;;0.40;0.40;;;;;;;15.60;88.57;99131.31;6274158;22;20024;-86
2023/09/01 02:08:52;;;;;;;0.40;0.40;;;;;;;15.66;88.49;99147.63;6274595;22;20019;-86
2023/09/01 02:11:44;;;;;;;0.40;0.40;;;;;;;15.64;88.67;99152.53;6247195;22;20047;-86
2023/09/01 02:14:12;;;;;;;0.30;0.30;;;;;;;15.54;88.59;99137.84;6248511;22;20102;-87
2023/09/01 02:16:39;;;;;;;0.40;0.40;;;;;;;15.53;88.86;99138.13;6249290;22;20340;-87
2023/09/01 02:19:09;;;;;;;0.40;0.40;;;;;;;15.45;89.16;99134.06;6270952;22;20063;-87
2023/09/01 02:21:39;;;;;;;0.40;0.40;;;;;;;15.48;89.58;99147.09;6277054;22;20007;-86
2023/09/01 02:24:06;;;;;;;0.40;0.40;;;;;;;15.44;89.73;99145.19;6252390;22;20412;-87
2023/09/01 02:26:34;;;;;;;0.40;0.40;;;;;;;15.46;89.70;99143.84;6247945;22;20027;-86
2023/09/01 02:29:05;;;;;;;0.40;0.40;;;;;;;15.42;89.92;99142.78;6274752;22;20048;-85
2023/09/01 02:31:32;;;;;;;0.40;0.40;;;;;;;15.39;90.00;99151.47;6274481;22;20047;-85
2023/09/01 02:34:00;;;;;;;0.40;0.40;;;;;;;15.37;90.20;99145.50;6221644;22;20035;-85
2023/09/01 02:36:28;;;;;;;0.40;0.40;;;;;;;15.37;90.39;99150.94;6274176;22;20031;-85
2023/09/01 02:38:56;;;;;;;0.40;0.40;;;;;;;15.38;90.27;99147.13;6273900;22;20495;-85
2023/09/01 02:41:24;;;;;;;0.30;0.30;;;;;;;15.36;90.19;99152.00;6273623;22;20414;-87
2023/09/01 02:43:51;;;;;;;0.40;0.40;;;;;;;15.36;90.37;99150.09;6274334;22;20043;-86
2023/09/01 02:46:20;;;;;;;0.40;0.40;;;;;;;15.37;90.26;99153.66;6274243;22;20051;-86
2023/09/01 02:48:47;;;;;;;0.40;0.40;;;;;;;15.36;90.31;99155.53;6248654;22;20135;-87
2023/09/01 02:51:15;;;;;;;0.40;0.40;;;;;;;15.41;90.05;99151.19;6248078;22;20024;-86
2023/09/01 02:53:43;;;;;;;0.40;0.40;;;;;;;15.39;90.00;99151.47;6245283;22;20004;-85
2023/09/01 02:56:10;;;;;;;0.40;0.40;;;;;;;15.45;89.63;99157.72;6288707;22;20059;-85
2023/09/01 02:58:37;;;;;;;0.40;0.40;;;;;;;15.43;89.47;99155.28;6246849;22;20028;-86
2023/09/01 03:01:09;;;;;;;0.40;0.40;;;;;;;15.39;89.58;99146.00;6220967;22;20363;-86
2023/09/01 03:03:38;;;;;;;0.40;0.40;;;;;;;15.45;89.64;99152.28;6222016;22;20532;-87
2023/09/01 03:06:08;;;;;;;0.40;0.40;;;;;;;15.43;89.43;99140.88;6233868;22;20018;-87
2023/09/01 03:08:37;;;;;;;0.40;0.40;;;;;;;15.48;89.36;99152.53;6268549;22;20509;-85
2023/09/01 03:11:05;;;;;;;0.30;0.30;;;;;;;15.52;89.14;99152.81;6228462;22;20019;-86
2023/09/01 03:13:33;;;;;;;0.40;0.40;;;;;;;15.51;89.14;99146.56;6251232;22;20019;-87
2023/09/01 03:16:03;;;;;;;0.40;0.40;;;;;;;15.58;88.87;99157.97;6246679;22;20370;-87
2023/09/01 03:18:33;;;;;;;0.40;0.40;;;;;;;15.61;88.58;99159.34;6247503;22;20351;-86
2023/09/01 03:21:11;;;;;;;0.40;0.40;;;;;;;15.67;88.09;99157.41;6246774;22;20031;-85
2023/09/01 03:23:39;;;;;;;0.40;0.40;;;;;;;15.74;87.76;99158.78;6247073;22;20103;-86
2023/09/01 03:26:06;;;;;;;0.40;0.40;;;;;;;15.79;87.54;99168.88;6246424;22;20027;-87
2023/09/01 03:28:35;;;;;;;0.40;0.40;;;;;;;15.87;87.06;99171.03;6247229;22;20023;-86
2023/09/01 03:31:08;;;;;;;0.40;0.40;;;;;;;15.95;86.63;99167.75;6273560;22;20027;-86
2023/09/01 03:33:37;;;;;;;0.40;0.40;;;;;;;15.98;86.35;99177.28;6222126;22;20026;-86
2023/09/01 03:36:07;;;;;;;0.40;0.40;;;;;;;16.06;85.71;99175.91;6261196;22;20031;-85
2023/09/01 03:38:35;;;;;;;0.40;0.40;;;;;;;16.13;85.24;99174.50;6274461;22;20015;-86
2023/09/01 03:41:04;;;;;;;0.40;0.40;;;;;;;16.20;84.92;99171.47;6274930;22;20024;-86
2023/09/01 03:43:32;;;;;;;0.40;0.40;;;;;;;16.28;84.54;99181.81;6221957;22;20023;-86
2023/09/01 03:45:59;;;;;;;0.40;0.40;;;;;;;16.38;84.05;99179.06;6221126;22;20330;-86
2023/09/01 03:48:27;;;;;;;0.40;0.40;;;;;;;16.46;83.68;99175.75;6247045;22;20023;-86
2023/09/01 03:51:13;;;;;;;0.40;0.40;;;;;;;16.55;83.06;99175.16;6247569;22;20142;-87
2023/09/01 03:53:40;;;;;;;0.40;0.40;;;;;;;16.62;82.82;99181.13;6279353;22;20027;-86
2023/09/01 03:56:16;;;;;;;0.40;0.40;;;;;;;16.67;82.11;99164.75;6246686;22;20019;-86
2023/09/01 03:58:43;;;;;;;0.40;0.40;;;;;;;16.77;81.21;99175.59;6276334;22;20482;-86
2023/09/01 04:01:11;;;;;;;0.40;0.40;;;;;;;16.86;80.94;99178.56;6281748;22;20024;-86
2023/09/01 04:03:42;;;;;;;0.40;0.40;;;;;;;16.97;80.48;99180.16;6253046;22;20098;-87
2023/09/01 04:06:10;;;;;;;0.40;0.40;;;;;;;17.07;80.31;99179.28;6247186;22;20024;-84
2023/09/01 04:08:37;;;;;;;0.40;0.40;;;;;;;17.11;79.85;99175.66;6221242;22;20406;-86
2023/09/01 04:11:05;;;;;;;0.40;0.40;;;;;;;17.13;79.29;99172.69;6245792;22;20027;-88
2023/09/01 04:13:33;;;;;;;0.40;0.40;;;;;;;17.20;78.86;99175.91;6224986;22;20035;-88
2023/09/01 04:16:01;;;;;;;0.35;0.35;;;;;;;17.25;78.37;99175.06;6248392;22;20080;-85
2023/09/01 04:18:30;;;;;;;0.40;0.40;;;;;;;17.29;77.91;99176.09;6248017;22;20028;-84
2023/09/01 04:20:57;;;;;;;0.40;0.40;;;;;;;17.36;77.95;99178.50;6247332;22;20731;-84
2023/09/01 04:23:24;;;;;;;0.40;0.40;;;;;;;17.39;77.00;99167.84;6248457;22;20085;-84
2023/09/01 04:25:52;;;;;;;0.40;0.40;;;;;;;17.45;76.42;99172.16;6248427;22;20085;-82
2023/09/01 04:28:23;;;;;;;0.40;0.40;;;;;;;17.51;76.13;99167.47;6247616;22;20024;-84
2023/09/01 04:30:51;;;;;;;0.40;0.40;;;;;;;17.54;76.28;99170.44;6221349;22;20046;-86
2023/09/01 04:33:35;;;;;;;0.32;0.32;;;;;;;17.61;76.20;99170.09;6225934;22;20482;-86
2023/09/01 04:36:10;;;;;;;0.40;0.40;;;;;;;17.66;75.69;99167.34;6247132;22;20054;-85
2023/09/01 04:38:37;;;;;;;0.40;0.40;;;;;;;17.76;75.52;99156.31;6223996;22;20023;-85
2023/09/01 04:41:06;;;;;;;0.40;0.40;;;;;;;17.88;75.01;99168.81;6222081;22;20054;-84
2023/09/01 04:43:34;;;;;;;0.40;0.40;;;;;;;17.91;74.33;99168.22;6247544;22;20160;-84
2023/09/01 04:46:02;;;;;;;0.40;0.40;;;;;;;17.87;74.81;99165.25;6222815;22;20023;-83
2023/09/01 04:48:30;;;;;;;0.40;0.40;;;;;;;17.89;74.46;99168.50;6248168;22;20055;-83
2023/09/01 04:51:00;;;;;;;0.40;0.40;;;;;;;17.97;74.30;99164.31;6248489;22;20101;-84
2023/09/01 04:53:29;;;;;;;0.40;0.40;;;;;;;18.09;74.13;99169.41;6247670;22;20463;-83
2023/09/01 04:55:56;;;;;;;0.40;0.40;;;;;;;18.12;73.57;99158.69;6197227;22;20041;-84
2023/09/01 04:58:24;;;;;;;0.40;0.40;;;;;;;18.30;73.74;99162.59;6223486;22;20084;-82
2023/09/01 05:00:52;;;;;;;0.40;0.40;;;;;;;18.40;73.01;99175.31;6275030;22;20054;-85
2023/09/01 05:03:19;;;;;;;0.40;0.40;;;;;;;18.49;72.96;99165.38;6222989;22;20068;-85
2023/09/01 05:05:49;;;;;;;0.30;0.30;;;;;;;18.61;72.40;99171.22;6248535;22;20056;-84
2023/09/01 05:08:22;;;;;;;0.40;0.40;;;;;;;18.68;71.73;99176.31;6248291;22;20019;-85
2023/09/01 05:10:51;;;;;;;0.30;0.30;;;;;;;18.77;72.00;99171.06;6249146;22;20098;-84
2023/09/01 05:13:19;;;;;;;0.40;0.40;;;;;;;18.75;70.26;99181.44;6275752;22;20106;-84
2023/09/01 05:15:48;;;;;;;0.38;0.38;;;;;;;18.60;70.35;99169.59;6248038;22;20023;-84
2023/09/01 05:18:15;;;;;;;0.40;0.40;;;;;;;18.51;70.75;99174.09;6244931;22;20024;-84
2023/09/01 05:20:49;;;;;;;0.40;0.40;;;;;;;18.55;70.76;99187.97;6247301;22;20054;-84
2023/09/01 05:23:25;;;;;;;0.40;0.40;;;;;;;18.54;70.40;99189.09;6247625;22;20044;-83
2023/09/01 05:26:00;;;;;;;0.40;0.40;;;;;;;18.50;70.56;99186.13;6250811;22;20026;-84
2023/09/01 05:28:28;;;;;;;0.40;0.40;;;;;;;18.58;70.22;99185.50;6247574;22;20398;-83
2023/09/01 05:30:58;;;;;;;0.40;0.40;;;;;;;18.78;70.42;99181.69;6221163;22;20023;-83
2023/09/01 05:33:29;;;;;;;;;;;;;;;19.10;69.58;99187.53;6222093;22;20051;-84
2023/09/01 05:35:58;;;;;;;0.40;0.40;;;;;;;19.20;68.75;99176.44;6246194;22;19930;-87
2023/09/01 05:38:32;;;;;;;0.40;0.40;;;;;;;19.25;67.87;99174.44;6243747;22;20034;-83
2023/09/01 05:41:01;;;;;;;0.40;0.40;;;;;;;19.38;67.69;99178.34;6219601;22;20024;-82
2023/09/01 05:43:33;;;;;;;0.40;0.40;;;;;;;19.33;67.60;99181.16;6247028;22;20023;-82
2023/09/01 05:46:01;;;;;;;0.40;0.40;;;;;;;19.40;67.55;99183.53;6223354;22;20027;-83
2023/09/01 05:48:28;;;;;;;0.40;0.40;;;;;;;19.54;66.68;99176.16;6293259;22;20031;-83
2023/09/01 05:51:23;;;;;;;0.40;0.40;;;;;;;19.66;66.32;99183.91;6262211;22;20045;-83
2023/09/01 05:53:53;;;;;;;0.40;0.40;;;;;;;19.66;65.63;99183.91;6250163;22;20020;-86
2023/09/01 05:56:21;;;;;;;0.35;0.35;;;;;;;19.62;65.79;99178.22;6220725;22;20039;-84
2023/09/01 05:58:48;;;;;;;0.40;0.40;;;;;;;19.67;65.37;99180.06;6221837;22;20413;-83
2023/09/01 06:01:21;;;;;;;0.40;0.40;;;;;;;19.86;64.93;99183.56;6246327;22;20230;-83
2023/09/01 06:03:49;;;;;;;0.40;0.40;;;;;;;19.95;64.12;99174.66;6246583;22;20030;-83
2023/09/01 06:06:20;;;;;;;0.38;0.38;;;;;;;20.06;64.31;99184.31;6273269;22;20023;-83
2023/09/01 06:08:51;;;;;;;0.40;0.40;;;;;;;20.17;64.17;99161.06;6273699;22;20027;-84
2023/09/01 06:11:19;;;;;;;0.30;0.30;;;;;;;20.25;62.75;99168.59;6246707;22;20035;-83
2023/09/01 06:13:46;;;;;;;0.40;0.40;;;;;;;20.43;62.40;99168.78;6273303;22;20375;-81
2023/09/01 06:16:14;;;;;;;0.40;0.40;;;;;;;20.58;63.02;99182.19;6245682;22;20455;-83
2023/09/01 06:18:42;;;;;;;0.40;0.40;;;;;;;20.79;62.04;99177.13;6273941;22;20062;-83
2023/09/01 06:21:10;;;;;;;0.40;0.40;;;;;;;20.73;60.97;99159.94;6221260;22;20023;-84
2023/09/01 06:23:44;;;;;;;0.30;0.30;;;;;;;20.87;60.46;99170.88;6198744;22;20354;-83
2023/09/01 06:26:17;;;;;;;0.40;0.40;;;;;;;20.78;60.73;99169.97;6141795;23;20080;-82
2023/09/01 06:29:20;;;;;;;0.40;0.40;;;;;;;20.83;60.41;99180.84;6175305;23;20025;-83
2023/09/01 06:37:04;;;;;;;0.40;0.40;;;;;;;21.11;58.82;99184.31;6130901;23;20067;-82
2023/09/01 06:40:16;;;;;;;0.40;0.40;;;;;;;21.39;59.01;99190.53;6082619;23;20081;-84
2023/09/01 06:43:35;;;;;;;0.40;0.40;;;;;;;21.58;59.19;99170.34;6076781;23;20029;-81
2023/09/01 06:49:46;;;;;;;0.30;0.30;;;;;;;21.83;57.71;99174.38;5885039;23;20023;-82
2023/09/01 06:52:38;;;;;;;0.40;0.40;;;;;;;21.74;56.71;99185.28;5944039;23;20031;-82
2023/09/01 06:55:06;;;;;;;0.40;0.40;;;;;;;21.66;56.69;99182.50;5981677;23;20062;-82
2023/09/01 06:57:33;;;;;;;0.30;0.30;;;;;;;21.73;57.77;99196.63;5998515;23;20114;-83
2023/09/01 07:00:01;;;;;;;0.30;0.30;;;;;;;21.83;57.54;99186.16;6010807;23;20084;-81
2023/09/01 07:02:31;;;;;;;0.30;0.30;;;;;;;21.93;57.68;99176.84;6012603;23;20068;-83
2023/09/01 07:04:58;;;;;;;0.40;0.40;;;;;;;22.12;55.89;99187.59;6011410;23;20055;-81
2023/09/01 07:07:26;;;;;;;0.30;0.30;;;;;;;22.16;55.01;99179.53;6073093;23;20026;-81
2023/09/01 07:09:53;;;;;;;0.30;0.30;;;;;;;22.30;55.15;99196.75;6097715;23;20425;-82
2023/09/01 07:12:21;;;;;;;0.30;0.30;;;;;;;22.36;54.00;99191.91;6099239;23;20915;-81
2023/09/01 07:15:13;;;;;;;0.40;0.40;;;;;;;22.59;54.36;99198.97;6122564;23;20030;-85
2023/09/01 07:17:42;;;;;;;0.30;0.30;;;;;;;22.65;54.03;99200.41;6098886;23;20614;-83
2023/09/01 07:20:12;;;;;;;0.30;0.30;;;;;;;22.75;53.72;99204.81;6121520;23;20508;-83
2023/09/01 07:22:42;;;;;;;0.30;0.30;;;;;;;22.81;54.06;99191.72;6123041;23;20030;-83
2023/09/01 07:25:11;;;;;;;0.30;0.30;;;;;;;22.98;52.47;99201.97;6121605;23;20024;-83
2023/09/01 07:27:38;;;;;;;0.40;0.40;;;;;;;22.93;51.56;99197.41;6098224;23;20053;-83
2023/09/01 07:30:13;;;;;;;0.40;0.40;;;;;;;23.10;51.46;99189.19;6098580;23;20026;-83
2023/09/01 07:32:45;;;;;;;0.30;0.30;;;;;;;23.50;51.84;99189.03;6140968;22;20045;-83
2023/09/01 07:35:12;;;;;;;0.40;0.40;;;;;;;23.98;50.97;99199.00;6248291;22;20020;-81
2023/09/01 07:37:39;;;;;;;0.30;0.30;;;;;;;24.21;49.66;99199.56;6275171;22;20028;-82
2023/09/01 07:40:07;;;;;;;0.30;0.30;;;;;;;24.20;48.80;99195.16;6274984;22;20443;-83
2023/09/01 07:42:34;;;;;;;0.30;0.30;;;;;;;24.21;48.01;99184.97;6248135;22;20110;-83
2023/09/01 07:45:02;;;;;;;0.30;0.30;;;;;;;24.38;48.04;99200.63;6275395;22;20031;-82
2023/09/01 07:47:34;;;;;;;0.30;0.30;;;;;;;24.38;47.15;99198.69;6248754;22;20028;-84
2023/09/01 07:50:03;;;;;;;0.30;0.30;;;;;;;24.47;48.31;99193.16;6248387;22;20394;-83
2023/09/01 07:52:30;;;;;;;0.30;0.30;;;;;;;24.66;47.69;99192.72;6247740;22;20019;-84
2023/09/01 07:55:00;;;;;;;0.30;0.30;;;;;;;24.86;47.13;99200.25;6273435;22;20156;-83
2023/09/01 07:57:32;;;;;;;0.30;0.30;;;;;;;24.98;47.42;99195.94;6273526;22;20355;-83
2023/09/01 08:00:01;;;;;;;0.30;0.30;;;;;;;25.38;46.49;99193.53;6246370;22;20534;-81
2023/09/01 08:02:48;;;;;;;0.32;0.32;;;;;;;25.61;46.17;99184.84;6273539;22;20035;-82
2023/09/01 08:05:20;;;;;;;0.40;0.40;;;;;;;25.81;44.78;99188.72;6273037;22;20053;-82
2023/09/01 08:07:49;;;;;;;0.38;0.38;;;;;;;25.99;45.52;99183.84;6246154;22;20111;-82
2023/09/01 08:10:48;;;;;;;0.30;0.30;;;;;;;26.18;42.44;99184.06;6272951;22;20347;-82
2023/09/01 08:13:22;;;;;;;0.32;0.32;;;;;;;26.03;43.16;99179.22;6271897;22;20089;-83
2023/09/01 08:15:49;;;;;;;0.30;0.30;;;;;;;26.06;41.72;99195.94;6273984;22;20024;-82
2023/09/01 08:18:19;;;;;;;0.40;0.40;;;;;;;26.28;41.50;99186.41;6273412;22;20369;-82
2023/09/01 08:20:47;;;;;;;0.35;0.35;;;;;;;26.72;40.20;99181.13;6246341;22;20027;-83
2023/09/01 08:23:21;;;;;;;0.30;0.30;;;;;;;26.99;39.78;99173.22;6245388;22;20520;-82
2023/09/01 08:25:50;;;;;;;0.40;0.40;;;;;;;27.41;39.18;99175.66;6273135;22;20031;-83
2023/09/01 08:28:19;;;;;;;0.40;0.40;;;;;;;27.45;37.90;99185.69;6273470;22;20024;-81
2023/09/01 08:30:47;;;;;;;0.40;0.40;;;;;;;27.67;37.20;99184.31;6195335;22;20027;-82
2023/09/01 08:33:17;;;;;;;0.30;0.30;;;;;;;28.13;37.66;99177.56;6273510;22;20027;-82
2023/09/01 08:35:45;;;;;;;0.30;0.30;;;;;;;28.46;35.79;99172.50;6247370;22;20085;-82
2023/09/01 08:38:22;;;;;;;0.30;0.30;;;;;;;28.71;35.45;99173.09;6273748;22;20020;-82
2023/09/01 08:40:58;;;;;;;0.30;0.30;;;;;;;28.73;34.77;99175.47;6274487;22;20521;-82
2023/09/01 08:43:54;;;;;;;0.40;0.40;;;;;;;28.60;35.24;99172.03;6272899;22;20057;-81
2023/09/01 08:46:26;;;;;;;0.30;0.30;;;;;;;28.45;34.16;99179.19;6223483;22;20023;-84
2023/09/01 08:48:56;;;;;;;0.30;0.30;;;;;;;28.28;34.72;99183.16;6246319;22;20107;-83
2023/09/01 08:51:29;;;;;;;0.32;0.32;;;;;;;28.50;34.56;99186.44;6272860;22;20023;-84
2023/09/01 08:54:12;;;;;;;0.40;0.40;;;;;;;28.32;34.34;99169.34;6260162;22;20066;-83
2023/09/01 08:56:42;;;;;;;0.30;0.30;;;;;;;28.34;34.23;99180.09;6272473;22;20028;-83
2023/09/01 08:59:10;;;;;;;0.30;0.30;;;;;;;28.94;33.85;99183.47;6272940;22;20027;-83
2023/09/01 09:01:40;;;;;;;0.30;0.30;;;;;;;29.13;33.15;99179.97;6224747;22;20023;-83
2023/09/01 09:04:08;;;;;;;0.30;0.30;;;;;;;28.90;33.50;99185.41;6274712;22;20024;-83
2023/09/01 09:06:42;;;;;;;0.30;0.30;;;;;;;28.93;33.65;99182.69;6275005;22;20031;-83
2023/09/01 09:09:18;;;;;;;0.30;0.30;;;;;;;29.15;33.52;99172.88;6274712;22;20047;-82
2023/09/01 09:11:56;;;;;;;0.30;0.30;;;;;;;29.51;34.43;99170.00;6275287;22;20094;-82
2023/09/01 09:14:29;;;;;;;0.30;0.30;;;;;;;30.16;32.63;99166.47;6274416;22;20022;-82
2023/09/01 09:17:03;;;;;;;0.30;0.30;;;;;;;30.33;32.55;99176.28;6248932;22;20020;-83
2023/09/01 09:19:30;;;;;;;0.30;0.30;;;;;;;30.63;31.37;99187.50;6274186;22;20020;-83
2023/09/01 09:22:10;;;;;;;0.30;0.30;;;;;;;30.62;31.67;99188.69;6274630;22;20027;-82
2023/09/01 09:24:41;;;;;;;0.30;0.30;;;;;;;30.40;31.82;99184.75;6247818;22;20024;-83
2023/09/01 09:27:14;;;;;;;0.30;0.30;;;;;;;30.37;32.06;99179.94;6274317;22;20043;-83
2023/09/01 09:29:45;;;;;;;0.32;0.32;;;;;;;30.29;32.33;99172.66;6282077;22;20087;-84
2023/09/01 09:32:19;;;;;;;0.30;0.30;;;;;;;30.58;33.08;99171.09;6261577;22;20118;-83
2023/09/01 09:35:08;;;;;;;0.40;0.40;;;;;;;30.96;31.48;99170.09;6276544;22;20019;-83
2023/09/01 09:37:39;;;;;;;0.30;0.30;;;;;;;30.80;31.35;99161.88;6275014;22;20023;-82
2023/09/01 09:40:17;;;;;;;0.40;0.40;;;;;;;30.86;30.92;99170.75;6273938;22;20090;-84
2023/09/01 09:42:45;;;;;;;0.32;0.32;;;;;;;31.29;30.20;99166.53;6274171;22;20024;-83
2023/09/01 09:45:26;;;;;;;0.30;0.30;;;;;;;31.43;30.02;99157.56;6246666;22;20524;-82
2023/09/01 09:47:59;;;;;;;0.30;0.30;;;;;;;31.85;30.76;99155.59;6273546;22;20026;-82
2023/09/01 09:50:27;;;;;;;0.30;0.30;;;;;;;32.04;28.86;99174.16;6274012;22;20019;-82
2023/09/01 09:53:02;;;;;;;0.30;0.30;;;;;;;31.41;29.63;99165.50;6247103;22;20024;-83
2023/09/01 09:55:36;;;;;;;;;;;;;;;31.59;30.11;99173.28;6274276;22;20050;-83
2023/09/01 09:58:06;;;;;;;0.32;0.32;;;;;;;31.93;29.60;99166.50;6221932;22;19979;-83
2023/09/01 10:00:45;;;;;;;0.40;0.40;;;;;;;32.19;29.00;99170.31;6273332;22;20401;-82
2023/09/01 10:03:13;;;;;;;0.35;0.35;;;;;;;32.01;28.79;99164.56;6274375;22;20015;-84
2023/09/01 10:05:42;;;;;;;0.30;0.30;;;;;;;32.21;28.91;99170.72;6280348;22;20020;-83
2023/09/01 10:08:09;;;;;;;0.30;0.30;;;;;;;32.18;28.98;99171.47;6257094;22;20051;-83
2023/09/01 10:10:41;;;;;;;0.32;0.32;;;;;;;32.03;28.84;99166.97;6245990;22;20969;-81
2023/09/01 10:13:09;;;;;;;0.30;0.30;;;;;;;32.15;28.48;99169.47;6273203;22;20520;-84
2023/09/01 10:15:43;;;;;;;0.30;0.30;;;;;;;32.47;28.85;99166.13;6247465;22;20028;-82
2023/09/01 10:18:16;;;;;;;0.30;0.30;;;;;;;32.97;28.00;99158.09;6247492;22;20027;-83
2023/09/01 10:20:45;;;;;;;0.30;0.30;;;;;;;32.95;27.63;99152.09;6246618;22;20019;-85
2023/09/01 10:23:12;;;;;;;0.30;0.30;;;;;;;33.43;27.06;99168.69;6246943;22;20034;-82
2023/09/01 10:25:41;;;;;;;0.30;0.30;;;;;;;33.37;27.44;99159.88;6221406;22;20043;-80
2023/09/01 10:28:13;;;;;;;0.30;0.30;;;;;;;33.50;27.09;99157.53;6194755;22;20538;-81
2023/09/01 10:30:42;;;;;;;0.30;0.30;;;;;;;33.73;27.16;99156.38;6273035;22;20077;-81
2023/09/01 10:33:24;;;;;;;0.30;0.30;;;;;;;34.37;26.61;99153.66;6246377;22;20038;-84
2023/09/01 10:35:57;;;;;;;0.30;0.30;;;;;;;34.51;26.11;99136.00;6247619;22;20028;-84
2023/09/01 10:38:34;;;;;;;0.30;0.30;;;;;;;34.34;26.13;99148.88;6246416;22;20103;-83
2023/09/01 10:41:02;;;;;;;0.32;0.32;;;;;;;34.29;26.28;99152.06;6272082;22;20028;-82
2023/09/01 10:46:12;;;;;;;0.30;0.30;;;;;;;34.40;26.03;99143.66;6245348;22;20047;-83
2023/09/01 10:48:58;;;;;;;0.30;0.30;;;;;;;34.07;25.99;99138.06;6273889;22;20054;-84
2023/09/01 10:51:25;;;;;;;0.30;0.30;;;;;;;34.17;26.03;99135.66;6245178;22;20030;-85
2023/09/01 10:53:59;;;;;;;0.30;0.30;;;;;;;34.34;25.86;99126.47;6273894;22;20458;-83
2023/09/01 10:56:28;;;;;;;0.30;0.30;;;;;;;34.75;25.35;99123.19;6246086;22;20023;-84
2023/09/01 10:58:57;;;;;;;0.30;0.30;;;;;;;34.74;25.62;99132.78;6272674;22;20023;-84
2023/09/01 11:01:30;;;;;;;0.30;0.30;;;;;;;34.52;25.67;99132.81;6247600;22;20397;-82
2023/09/01 11:04:21;;;;;;;0.30;0.30;;;;;;;35.06;25.54;99131.88;6245453;22;20526;-82
2023/09/01 11:06:57;;;;;;;0.30;0.30;;;;;;;35.36;24.98;99120.94;6273267;22;20030;-82
2023/09/01 11:09:46;;;;;;;0.30;0.30;;;;;;;35.53;24.89;99124.06;6245844;22;20351;-81
2023/09/01 11:12:14;;;;;;;0.30;0.30;;;;;;;35.36;24.81;99123.75;6245308;22;20020;-83
2023/09/01 11:14:59;;;;;;;0.30;0.30;;;;;;;35.05;24.84;99121.88;6245489;22;20454;-82
2023/09/01 11:17:38;;;;;;;0.30;0.30;;;;;;;34.75;25.03;99123.19;6221643;22;20077;-81
2023/09/01 11:20:09;;;;;;;0.30;0.30;;;;;;;34.96;24.79;99120.31;6272712;22;20069;-83
2023/09/01 11:22:38;;;;;;;0.30;0.30;;;;;;;35.18;24.67;99106.22;6246634;22;20081;-84
2023/09/01 11:25:08;;;;;;;0.30;0.30;;;;;;;35.52;24.74;99114.84;6246969;22;20020;-84
2023/09/01 11:27:41;;;;;;;0.30;0.30;;;;;;;35.51;24.48;99120.88;6246035;22;20370;-82
2023/09/01 11:30:09;;;;;;;0.30;0.30;;;;;;;35.06;24.51;99112.25;6245850;22;20026;-84
2023/09/01 11:32:36;;;;;;;0.30;0.30;;;;;;;35.53;24.96;99108.03;6273553;22;20019;-84
2023/09/01 11:35:05;;;;;;;0.30;0.30;;;;;;;36.11;23.76;99118.88;6273054;22;20074;-83
2023/09/01 11:37:42;;;;;;;0.30;0.30;;;;;;;36.07;23.68;99118.88;6272196;22;20752;-82
2023/09/01 11:40:12;;;;;;;0.30;0.30;;;;;;;35.81;23.80;99121.09;6270415;22;20028;-81
2023/09/01 11:42:42;;;;;;;0.30;0.30;;;;;;;35.84;24.02;99121.47;6246144;22;20026;-84
2023/09/01 11:45:11;;;;;;;0.30;0.30;;;;;;;35.90;23.62;99111.41;6271333;22;20414;-83
2023/09/01 11:47:38;;;;;;;0.30;0.30;;;;;;;35.95;23.49;99106.13;6272130;22;20020;-83
2023/09/01 11:50:11;;;;;;;0.30;0.30;;;;;;;35.24;24.45;99104.59;6273398;22;20027;-81
2023/09/01 11:52:55;;;;;;;0.30;0.30;;;;;;;34.99;24.73;99101.06;6273607;22;20070;-82
2023/09/01 11:55:34;;;;;;;0.30;0.30;;;;;;;35.15;25.10;99099.44;6273625;22;20039;-83
2023/09/01 11:58:09;;;;;;;0.30;0.30;;;;;;;35.47;24.31;99101.25;6271249;22;20065;-82
2023/09/01 12:00:38;;;;;;;0.30;0.30;;;;;;;36.05;23.99;99087.59;6272440;22;20336;-81
2023/09/01 12:03:06;;;;;;;0.30;0.30;;;;;;;35.31;24.98;99086.91;6272918;22;20023;-83
2023/09/01 12:05:38;;;;;;;0.30;0.30;;;;;;;35.75;24.07;99091.88;6245924;22;20118;-83
2023/09/01 12:08:09;;;;;;;0.30;0.30;;;;;;;36.13;24.31;99096.78;6245065;22;20498;-83